Archival Weather

Republic

Farmingdale, New York (KFRG)

Report from: Wednesday, February 14, 2024 12:53 PM EST
Current time: Friday, June 14, 2024 8:49 AM EDT

Current weather – Weather history – Daily summaries
Weather forecast

Temperature0.6°C (33.1°F)
Wind chill-4.8°C (23.4°F)
Dew point-10.6°C (12.9°F)
Winds 12 kts (6.2 m/s, 13.8 mph) West-Northwest (290°)
Wind gusts 25 kts (12.9 m/s, 28.8 mph)
Peak wind 29 kts (14.9 m/s, 33.4 mph) West-Northwest (290°) at 16:58
Visibility10 mi. (16.1 km)
Clouds Sky clear
Altimeter29.99 in.Hg (1016 mB)
Relative humidity43 %
Density altitude-1,786 ft. (-544 m)
Sea-level pressure101.6 kPa (1016 mB, 29.99 in.Hg)
Max temp last 6 hours0.6°C (33.1°F)
Min temp last 6 hours-1.7°C (28.9°F)
Remarks Automated weather observing station without precipitation discriminator
Pressure falling more quickly
Flight conditions Visual Meteorological Conditions
Raw dataKFRG 141753Z 29012G25KT 10SM CLR 01/M11 A2999 RMK AO1 PK WND 29029/1658 SLP155 T00061106 10006 21017 58006
An error has occurred. This application may no longer respond until reloaded. Reload 🗙